createdAt,value
2019-04-03T00:00:55.038Z,7.80
2019-04-03T00:03:24.781Z,7.70
2019-04-03T00:05:54.434Z,7.60
2019-04-03T00:08:24.155Z,7.60
2019-04-03T00:10:53.871Z,7.60
2019-04-03T00:13:23.618Z,7.60
2019-04-03T00:15:53.286Z,7.60
2019-04-03T00:18:22.942Z,7.60
2019-04-03T00:20:52.634Z,7.50
2019-04-03T00:23:22.911Z,7.50
2019-04-03T00:25:52.840Z,7.40
2019-04-03T00:28:22.852Z,7.40
2019-04-03T00:30:53.292Z,7.40
2019-04-03T00:33:23.882Z,7.40
2019-04-03T00:35:53.983Z,7.30
2019-04-03T00:38:24.347Z,7.20
2019-04-03T00:40:54.982Z,7.20
2019-04-03T00:43:25.358Z,7.10
2019-04-03T00:45:55.355Z,7.00
2019-04-03T00:48:25.925Z,7.10
2019-04-03T00:50:57.303Z,7.00
2019-04-03T00:53:27.657Z,7.00
2019-04-03T00:55:59.616Z,7.10
2019-04-03T00:58:42.155Z,7.00
2019-04-03T01:01:12.898Z,7.10
2019-04-03T01:03:42.771Z,7.00
2019-04-03T01:06:12.572Z,7.10
2019-04-03T01:08:42.463Z,7.10
2019-04-03T01:11:12.291Z,7.00
2019-04-03T01:13:42.141Z,7.10
2019-04-03T01:16:11.954Z,7.00
2019-04-03T01:18:42.315Z,7.00
2019-04-03T01:21:11.966Z,7.00
2019-04-03T01:23:41.741Z,7.00
2019-04-03T01:26:11.558Z,6.90
2019-04-03T01:28:41.927Z,6.90
2019-04-03T01:31:14.222Z,6.90
2019-04-03T01:33:46.127Z,6.80
2019-04-03T01:36:17.603Z,6.90
2019-04-03T01:38:47.910Z,6.90
2019-04-03T01:41:18.864Z,6.90
2019-04-03T01:43:50.158Z,6.80
2019-04-03T01:46:19.868Z,6.80
2019-04-03T01:48:49.509Z,6.80
2019-04-03T01:51:19.318Z,6.90
2019-04-03T01:53:48.839Z,6.80
2019-04-03T01:56:18.559Z,6.80
2019-04-03T01:58:48.208Z,6.70
2019-04-03T02:01:17.913Z,6.80
2019-04-03T02:03:47.624Z,6.80
2019-04-03T02:06:17.412Z,6.80
2019-04-03T02:08:47.042Z,6.70
2019-04-03T02:11:18.430Z,6.70
2019-04-03T02:13:48.174Z,6.70
2019-04-03T02:16:17.876Z,6.70
2019-04-03T02:18:47.515Z,6.70
2019-04-03T02:21:17.420Z,6.80
2019-04-03T02:23:47.195Z,6.80
2019-04-03T02:26:16.922Z,6.80
2019-04-03T02:28:46.630Z,6.80
2019-04-03T02:31:19.230Z,6.80
2019-04-03T02:33:47.863Z,6.80
2019-04-03T02:36:18.164Z,6.90
2019-04-03T02:38:48.882Z,6.90
2019-04-03T02:41:18.808Z,6.90
2019-04-03T02:43:48.621Z,6.90
2019-04-03T02:46:18.275Z,6.90
2019-04-03T02:48:47.983Z,6.90
2019-04-03T02:51:19.687Z,6.90
2019-04-03T02:53:49.379Z,6.80
2019-04-03T02:56:19.014Z,6.80
2019-04-03T02:58:48.828Z,6.80
2019-04-03T03:01:18.671Z,6.80
2019-04-03T03:03:49.924Z,6.80
2019-04-03T03:06:19.877Z,6.80
2019-04-03T03:08:49.863Z,6.80
2019-04-03T03:11:23.252Z,6.80
2019-04-03T03:13:52.293Z,6.80
2019-04-03T03:16:22.593Z,6.80
2019-04-03T03:18:52.598Z,6.80
2019-04-03T03:21:22.856Z,6.80
2019-04-03T03:23:55.135Z,6.80
2019-04-03T03:26:24.626Z,6.90
2019-04-03T03:28:54.398Z,6.90
2019-04-03T03:31:56.350Z,6.80
2019-04-03T03:34:00.478Z,6.80
2019-04-03T03:36:28.073Z,6.80
2019-04-03T03:38:59.085Z,6.80
2019-04-03T03:41:29.441Z,6.80
2019-04-03T03:43:59.419Z,6.80
2019-04-03T03:46:29.512Z,6.80
2019-04-03T03:48:59.594Z,6.80
2019-04-03T03:51:31.930Z,6.70
2019-04-03T03:54:02.088Z,6.80
2019-04-03T03:56:33.203Z,6.70
2019-04-03T03:59:04.493Z,6.70
2019-04-03T04:01:34.459Z,6.80
2019-04-03T04:04:04.557Z,6.80
2019-04-03T04:06:36.452Z,6.80
2019-04-03T04:09:08.460Z,6.70
2019-04-03T04:11:40.061Z,6.80
2019-04-03T04:14:10.329Z,6.80
2019-04-03T04:16:40.770Z,6.80
2019-04-03T04:19:10.551Z,6.80
2019-04-03T04:21:42.997Z,6.80
2019-04-03T04:24:12.314Z,6.80
2019-04-03T04:26:42.867Z,6.70
2019-04-03T04:29:13.690Z,6.70
2019-04-03T04:31:44.436Z,6.70
2019-04-03T04:34:14.239Z,6.70
2019-04-03T04:36:44.115Z,6.60
2019-04-03T04:39:13.925Z,6.70
2019-04-03T04:41:43.661Z,6.70
2019-04-03T04:44:14.737Z,6.70
2019-04-03T04:46:45.038Z,6.70
2019-04-03T04:49:14.925Z,6.60
2019-04-03T04:51:44.962Z,6.60
2019-04-03T04:54:14.751Z,6.60
2019-04-03T04:56:44.421Z,6.60
2019-04-03T04:59:14.248Z,6.60
2019-04-03T05:01:44.371Z,6.60
2019-04-03T05:04:15.605Z,6.60
2019-04-03T05:06:45.468Z,6.60
2019-04-03T05:09:15.253Z,6.60
2019-04-03T05:11:44.984Z,6.60
2019-04-03T05:14:15.795Z,6.60
2019-04-03T05:16:47.480Z,6.60
2019-04-03T05:19:19.306Z,6.60
2019-04-03T05:21:50.789Z,6.60
2019-04-03T05:24:21.123Z,6.60
2019-04-03T05:26:50.862Z,6.60
2019-04-03T05:29:20.728Z,6.60
2019-04-03T05:31:50.760Z,6.50
2019-04-03T05:34:20.385Z,6.50
2019-04-03T05:36:50.118Z,6.40
2019-04-03T05:39:19.952Z,6.40
2019-04-03T05:41:49.750Z,6.40
2019-04-03T05:44:19.525Z,6.40
2019-04-03T05:46:49.175Z,6.40
2019-04-03T05:49:19.681Z,6.50
2019-04-03T05:51:49.449Z,6.50
2019-04-03T05:54:19.188Z,6.50
2019-04-03T05:56:51.521Z,6.50
2019-04-03T05:59:20.316Z,6.40
2019-04-03T06:01:50.138Z,6.40
2019-04-03T06:04:19.955Z,6.40
2019-04-03T06:06:49.593Z,6.40
2019-04-03T06:09:20.091Z,6.50
2019-04-03T06:11:52.641Z,6.40
2019-04-03T06:14:23.574Z,6.40
2019-04-03T06:16:56.161Z,6.40
2019-04-03T06:19:25.942Z,6.40
2019-04-03T06:21:55.658Z,6.50
2019-04-03T06:24:25.737Z,6.50
2019-04-03T06:26:55.571Z,6.50
2019-04-03T06:29:25.260Z,6.50
2019-04-03T06:31:57.304Z,6.50
2019-04-03T06:34:26.186Z,6.50
2019-04-03T06:36:56.005Z,6.50
2019-04-03T06:39:30.370Z,6.60
2019-04-03T06:41:57.104Z,6.60
2019-04-03T06:44:26.744Z,6.60
2019-04-03T06:46:56.471Z,6.70
2019-04-03T06:49:26.225Z,6.70
2019-04-03T06:51:55.898Z,6.70
2019-04-03T06:54:25.660Z,6.70
2019-04-03T06:56:55.439Z,6.80
2019-04-03T06:59:25.073Z,6.80
2019-04-03T07:01:54.876Z,6.80
2019-04-03T07:04:24.709Z,6.90
2019-04-03T07:06:56.283Z,6.90
2019-04-03T07:09:35.170Z,7.00
2019-04-03T07:11:57.726Z,7.10
2019-04-03T07:14:27.581Z,7.20
2019-04-03T07:16:57.186Z,7.20
2019-04-03T07:19:28.187Z,7.30
2019-04-03T07:21:57.789Z,7.30
2019-04-03T07:24:30.081Z,7.40
2019-04-03T07:27:02.057Z,7.40
2019-04-03T07:29:31.834Z,7.50
2019-04-03T07:32:01.677Z,7.60
2019-04-03T07:34:33.700Z,7.60
2019-04-03T07:37:03.134Z,7.70
2019-04-03T07:39:33.062Z,7.70
2019-04-03T07:42:02.785Z,7.70
2019-04-03T07:44:32.773Z,7.80
2019-04-03T07:47:04.024Z,7.80
2019-04-03T07:49:33.756Z,7.90
2019-04-03T07:52:03.948Z,8.00
2019-04-03T07:54:33.690Z,8.10
2019-04-03T07:57:03.305Z,8.10
2019-04-03T07:59:34.254Z,8.10
2019-04-03T08:02:04.634Z,8.20
2019-04-03T08:04:34.519Z,8.30
2019-04-03T08:07:04.269Z,8.40
2019-04-03T08:09:33.977Z,8.40
2019-04-03T08:12:04.519Z,8.50
2019-04-03T08:14:34.365Z,8.50
2019-04-03T08:17:04.064Z,8.60
2019-04-03T08:19:33.812Z,8.60
2019-04-03T08:22:03.710Z,8.60
2019-04-03T08:24:33.391Z,8.60
2019-04-03T08:27:03.238Z,8.70
2019-04-03T08:29:34.702Z,8.80
2019-04-03T08:32:04.498Z,8.80
2019-04-03T08:34:34.209Z,8.90
2019-04-03T08:37:04.071Z,8.80
2019-04-03T08:39:33.969Z,8.80
2019-04-03T08:42:03.608Z,8.90
2019-04-03T08:44:33.821Z,9.00
2019-04-03T08:47:06.613Z,9.10
2019-04-03T08:49:36.336Z,9.10
2019-04-03T08:52:06.239Z,9.00
2019-04-03T08:54:36.153Z,9.10
2019-04-03T08:57:05.960Z,9.10
2019-04-03T08:59:36.014Z,9.10
2019-04-03T09:02:07.748Z,9.20
2019-04-03T09:04:37.113Z,9.30
2019-04-03T09:07:06.844Z,9.40
2019-04-03T09:09:36.558Z,9.50
2019-04-03T09:12:07.309Z,9.60
2019-04-03T09:14:37.794Z,9.70
2019-04-03T09:17:07.476Z,9.60
2019-04-03T09:19:41.099Z,9.60
2019-04-03T09:22:10.086Z,9.50
2019-04-03T09:24:40.003Z,9.40
2019-04-03T09:27:10.510Z,9.30
2019-04-03T09:29:40.663Z,9.30
2019-04-03T09:32:10.450Z,9.20
2019-04-03T09:34:40.386Z,9.30
2019-04-03T09:37:10.143Z,9.40
2019-04-03T09:39:39.925Z,9.50
2019-04-03T09:42:09.622Z,9.40
2019-04-03T09:44:39.601Z,9.50
2019-04-03T09:47:09.580Z,9.50
2019-04-03T09:49:42.649Z,9.70
2019-04-03T09:52:10.857Z,9.70
2019-04-03T09:54:41.042Z,9.80
2019-04-03T09:57:10.840Z,9.80
2019-04-03T09:59:41.295Z,9.90
2019-04-03T10:02:11.355Z,10.00
2019-04-03T10:04:40.986Z,10.10
2019-04-03T10:07:10.647Z,10.20
2019-04-03T10:09:43.217Z,10.50
2019-04-03T10:12:11.786Z,10.60
2019-04-03T10:14:41.347Z,10.80
2019-04-03T10:17:11.057Z,10.50
2019-04-03T10:19:40.778Z,10.40
2019-04-03T10:22:10.765Z,10.40
2019-04-03T10:24:40.748Z,10.40
2019-04-03T10:27:11.538Z,10.30
2019-04-03T10:29:41.966Z,10.30
2019-04-03T10:32:13.471Z,10.20
2019-04-03T10:34:44.192Z,10.30
2019-04-03T10:37:15.145Z,10.20
2019-04-03T10:39:45.138Z,10.10
2019-04-03T10:42:15.131Z,10.00
2019-04-03T10:44:44.844Z,10.10
2019-04-03T10:47:14.857Z,10.20
2019-04-03T10:49:44.594Z,10.40
2019-04-03T10:52:14.844Z,10.50
2019-04-03T10:54:44.969Z,10.70
2019-04-03T10:57:14.650Z,10.90
2019-04-03T10:59:44.337Z,11.00
2019-04-03T11:02:14.133Z,11.20
2019-04-03T11:04:44.151Z,11.20
2019-04-03T11:07:13.918Z,11.30
2019-04-03T11:09:43.666Z,11.20
2019-04-03T11:12:13.779Z,11.20
2019-04-03T11:14:43.845Z,11.10
2019-04-03T11:17:13.604Z,10.90
2019-04-03T11:19:44.333Z,10.80
2019-04-03T11:22:16.357Z,10.60
2019-04-03T11:24:46.683Z,10.50
2019-04-03T11:27:16.361Z,10.30
2019-04-03T11:29:46.924Z,10.10
2019-04-03T11:32:16.747Z,9.90
2019-04-03T11:34:48.985Z,9.90
2019-04-03T11:37:18.507Z,9.90
2019-04-03T11:39:52.032Z,10.10
2019-04-03T11:42:25.161Z,10.20
2019-04-03T11:44:51.033Z,10.30
2019-04-03T11:47:20.732Z,10.40
2019-04-03T11:49:52.484Z,10.10
2019-04-03T11:52:21.857Z,10.00
2019-04-03T11:54:52.970Z,10.10
2019-04-03T11:57:23.229Z,10.00
2019-04-03T11:59:55.444Z,10.00
2019-04-03T12:02:25.046Z,9.90
2019-04-03T12:04:56.586Z,9.90
2019-04-03T12:07:26.435Z,9.90
2019-04-03T12:09:56.187Z,9.80
2019-04-03T12:12:26.262Z,9.50
2019-04-03T12:14:55.869Z,9.00
2019-04-03T12:17:28.776Z,8.80
2019-04-03T12:19:57.205Z,8.70
2019-04-03T12:22:27.292Z,8.80
2019-04-03T12:24:57.152Z,9.10
2019-04-03T12:27:27.359Z,9.40
2019-04-03T12:29:57.064Z,9.60
2019-04-03T12:32:36.368Z,9.80
2019-04-03T12:34:58.955Z,10.20
2019-04-03T12:37:29.007Z,10.40
2019-04-03T12:40:00.600Z,10.50
2019-04-03T12:42:31.230Z,10.40
2019-04-03T12:45:01.109Z,10.70
2019-04-03T12:47:30.930Z,10.80
2019-04-03T12:50:00.573Z,11.20
2019-04-03T12:52:31.236Z,11.40
2019-04-03T12:55:00.895Z,11.80
2019-04-03T12:57:32.152Z,12.10
2019-04-03T13:00:02.488Z,12.40
2019-04-03T13:02:32.234Z,12.50
2019-04-03T13:05:05.063Z,12.70
2019-04-03T13:07:35.765Z,13.00
2019-04-03T13:10:08.587Z,13.00
2019-04-03T13:12:38.422Z,12.80
2019-04-03T13:15:13.022Z,12.70
2019-04-03T13:17:45.709Z,12.70
2019-04-03T13:20:15.758Z,13.10
2019-04-03T13:22:46.033Z,13.40
2019-04-03T13:25:16.172Z,13.60
2019-04-03T13:27:46.160Z,13.60
2019-04-03T13:30:16.710Z,13.50
2019-04-03T13:32:57.472Z,13.60
2019-04-03T13:35:18.076Z,13.60
2019-04-03T13:37:47.839Z,13.40
2019-04-03T13:40:18.108Z,13.20
2019-04-03T13:42:49.388Z,13.20
2019-04-03T13:45:19.431Z,12.90
2019-04-03T13:47:49.233Z,12.80
2019-04-03T13:50:21.769Z,12.60
2019-04-03T13:52:50.755Z,12.60
2019-04-03T13:55:20.988Z,12.50
2019-04-03T13:57:51.401Z,12.40
2019-04-03T14:00:23.460Z,12.30
2019-04-03T14:02:55.990Z,12.40
2019-04-03T14:05:27.239Z,12.30
2019-04-03T14:07:56.284Z,12.30
2019-04-03T14:10:27.934Z,12.20
2019-04-03T14:12:57.814Z,12.10
2019-04-03T14:15:27.766Z,12.10
2019-04-03T14:17:59.160Z,12.00
2019-04-03T14:20:29.856Z,11.80
2019-04-03T14:23:02.897Z,11.80
2019-04-03T14:25:36.799Z,11.60
2019-04-03T14:28:03.375Z,11.40
2019-04-03T14:30:33.975Z,11.20
2019-04-03T14:33:03.688Z,10.80
2019-04-03T14:35:46.923Z,10.60
2019-04-03T14:38:04.746Z,10.30
2019-04-03T14:40:34.451Z,10.00
2019-04-03T14:43:04.177Z,9.70
2019-04-03T14:45:34.396Z,9.40
2019-04-03T14:48:04.200Z,9.00
2019-04-03T14:50:36.601Z,8.90
2019-04-03T14:53:05.344Z,8.90
2019-04-03T14:55:46.264Z,9.00
2019-04-03T14:58:06.861Z,9.00
2019-04-03T15:00:36.906Z,8.80
2019-04-03T15:03:06.939Z,8.70
2019-04-03T15:05:39.274Z,8.80
2019-04-03T15:08:08.278Z,8.90
2019-04-03T15:10:38.068Z,9.10
2019-04-03T15:13:08.045Z,9.10
2019-04-03T15:15:37.774Z,9.20
2019-04-03T15:18:10.070Z,9.30
2019-04-03T15:20:38.900Z,9.30
2019-04-03T15:23:09.485Z,9.40
2019-04-03T15:25:51.702Z,9.50
2019-04-03T15:28:19.742Z,9.60
2019-04-03T15:30:49.476Z,9.70
2019-04-03T15:33:23.244Z,9.70
2019-04-03T15:35:52.442Z,9.70
2019-04-03T15:38:23.211Z,9.80
2019-04-03T15:40:52.809Z,9.80
2019-04-03T15:43:22.526Z,9.80
2019-04-03T15:45:52.324Z,9.70
2019-04-03T15:48:22.858Z,9.70
2019-04-03T15:50:53.311Z,9.60
2019-04-03T15:53:24.157Z,9.60
2019-04-03T15:55:54.476Z,9.70
2019-04-03T15:58:25.642Z,9.60
2019-04-03T16:00:55.715Z,9.50
2019-04-03T16:03:26.154Z,9.50
2019-04-03T16:05:55.871Z,9.60
2019-04-03T16:08:25.586Z,9.70
2019-04-03T16:10:57.216Z,9.70
2019-04-03T16:13:27.584Z,9.70
2019-04-03T16:16:00.223Z,9.70
2019-04-03T16:18:28.698Z,9.70
2019-04-03T16:20:58.412Z,9.80
2019-04-03T16:23:28.558Z,9.80
2019-04-03T16:25:58.686Z,9.90
2019-04-03T16:28:28.736Z,9.90
2019-04-03T16:30:58.356Z,10.00
2019-04-03T16:33:28.020Z,9.90
2019-04-03T16:35:57.735Z,9.90
2019-04-03T16:38:28.524Z,9.90
2019-04-03T16:41:00.102Z,9.90
2019-04-03T16:43:29.964Z,9.90
2019-04-03T16:45:59.567Z,9.80
2019-04-03T16:48:29.244Z,9.90
2019-04-03T16:51:00.189Z,9.80
2019-04-03T16:53:30.929Z,9.80
2019-04-03T16:56:01.077Z,9.80
2019-04-03T16:58:30.804Z,9.90
2019-04-03T17:01:00.569Z,9.90
2019-04-03T17:03:33.250Z,9.80
2019-04-03T17:06:02.084Z,9.90
2019-04-03T17:08:31.722Z,9.90
2019-04-03T17:11:02.131Z,9.80
2019-04-03T17:13:32.597Z,9.80
2019-04-03T17:16:02.474Z,9.80
2019-04-03T17:18:32.127Z,9.80
2019-04-03T17:21:01.981Z,9.70
2019-04-03T17:23:31.618Z,9.70
2019-04-03T17:26:01.406Z,9.70
2019-04-03T17:28:31.299Z,9.60
2019-04-03T17:31:01.132Z,9.60
2019-04-03T17:33:33.977Z,9.60
2019-04-03T17:36:02.186Z,9.50
2019-04-03T17:38:33.322Z,9.50
2019-04-03T17:41:03.052Z,9.50
2019-04-03T17:43:32.767Z,9.40
2019-04-03T17:46:02.991Z,9.40
2019-04-03T17:48:32.852Z,9.20
2019-04-03T17:51:03.089Z,9.20
2019-04-03T17:53:34.868Z,9.20
2019-04-03T17:56:05.521Z,9.20
2019-04-03T17:58:35.246Z,9.20
2019-04-03T18:01:05.001Z,9.10
2019-04-03T18:03:34.726Z,9.10
2019-04-03T18:06:04.817Z,9.00
2019-04-03T18:08:35.356Z,9.00
2019-04-03T18:11:05.205Z,8.90
2019-04-03T18:13:34.936Z,8.90
2019-04-03T18:16:04.651Z,8.90
2019-04-03T18:18:34.358Z,8.80
2019-04-03T18:21:04.121Z,8.80
2019-04-03T18:23:33.816Z,8.80
2019-04-03T18:26:03.525Z,8.70
2019-04-03T18:28:35.498Z,8.60
2019-04-03T18:31:04.867Z,8.60
2019-04-03T18:33:34.660Z,8.60
2019-04-03T18:36:04.832Z,8.50
2019-04-03T18:38:34.536Z,8.50
2019-04-03T18:41:04.413Z,8.40
2019-04-03T18:43:34.842Z,8.40
2019-04-03T18:46:04.542Z,8.40
2019-04-03T18:48:34.192Z,8.30
2019-04-03T18:51:05.886Z,8.30
2019-04-03T18:53:35.376Z,8.20
2019-04-03T18:56:07.728Z,8.20
2019-04-03T18:58:37.450Z,8.20
2019-04-03T19:01:07.339Z,8.20
2019-04-03T19:03:37.018Z,8.10
2019-04-03T19:06:06.958Z,8.10
2019-04-03T19:08:36.628Z,8.00
2019-04-03T19:11:09.468Z,8.00
2019-04-03T19:13:37.687Z,8.00
2019-04-03T19:16:08.521Z,7.90
2019-04-03T19:18:38.736Z,7.90
2019-04-03T19:21:11.504Z,7.90
2019-04-03T19:23:49.213Z,7.90
2019-04-03T19:26:11.458Z,7.90
2019-04-03T19:28:41.046Z,7.80
2019-04-03T19:31:10.791Z,7.80
2019-04-03T19:33:40.709Z,7.80
2019-04-03T19:36:10.485Z,7.80
2019-04-03T19:38:40.194Z,7.80
2019-04-03T19:41:11.794Z,7.80
2019-04-03T19:43:41.332Z,7.80
2019-04-03T19:46:11.059Z,7.70
2019-04-03T19:48:40.773Z,7.70
2019-04-03T19:51:10.487Z,7.70
2019-04-03T19:53:40.486Z,7.70
2019-04-03T19:56:10.233Z,7.70
2019-04-03T19:58:39.958Z,7.60
2019-04-03T20:01:09.672Z,7.60
2019-04-03T20:03:39.377Z,7.60
2019-04-03T20:06:09.113Z,7.60
2019-04-03T20:08:38.829Z,7.60
2019-04-03T20:11:09.594Z,7.60
2019-04-03T20:13:39.819Z,7.50
2019-04-03T20:16:10.166Z,7.50
2019-04-03T20:18:39.955Z,7.60
2019-04-03T20:21:09.728Z,7.60
2019-04-03T20:23:41.605Z,7.50
2019-04-03T20:26:11.605Z,7.50
2019-04-03T20:28:41.320Z,7.50
2019-04-03T20:31:11.114Z,7.60
2019-04-03T20:33:42.367Z,7.50
2019-04-03T20:36:12.378Z,7.50
2019-04-03T20:38:42.097Z,7.50
2019-04-03T20:41:12.660Z,7.50
2019-04-03T20:43:43.317Z,7.40
2019-04-03T20:46:13.982Z,7.40
2019-04-03T20:48:43.741Z,7.40
2019-04-03T20:51:13.535Z,7.40
2019-04-03T20:53:43.332Z,7.30
2019-04-03T20:56:13.049Z,7.30
2019-04-03T20:58:54.884Z,7.40
2019-04-03T21:01:15.109Z,7.30
2019-04-03T21:03:44.879Z,7.30
2019-04-03T21:06:14.594Z,7.30
2019-04-03T21:08:44.225Z,7.30
2019-04-03T21:11:13.935Z,7.30
2019-04-03T21:13:43.663Z,7.30
2019-04-03T21:16:15.007Z,7.30
2019-04-03T21:18:44.667Z,7.30
2019-04-03T21:21:16.075Z,7.30
2019-04-03T21:23:46.059Z,7.30
2019-04-03T21:26:17.254Z,7.30
2019-04-03T21:28:46.955Z,7.30
2019-04-03T21:31:16.730Z,7.20
2019-04-03T21:33:46.502Z,7.20
2019-04-03T21:36:16.321Z,7.20
2019-04-03T21:38:45.943Z,7.20
2019-04-03T21:41:15.716Z,7.20
2019-04-03T21:43:45.423Z,7.10
2019-04-03T21:46:15.098Z,7.10
2019-04-03T21:48:45.270Z,7.10
2019-04-03T21:51:15.118Z,7.10
2019-04-03T21:53:44.767Z,7.00
2019-04-03T21:56:14.376Z,7.00
2019-04-03T21:58:44.152Z,6.90
2019-04-03T22:01:23.636Z,6.90
2019-04-03T22:03:53.656Z,6.80
2019-04-03T22:06:26.636Z,6.80
2019-04-03T22:08:55.005Z,6.80
2019-04-03T22:11:25.494Z,6.80
2019-04-03T22:13:55.785Z,6.70
2019-04-03T22:16:25.579Z,6.70
2019-04-03T22:18:55.573Z,6.70
2019-04-03T22:21:25.379Z,6.60
2019-04-03T22:23:55.237Z,6.60
2019-04-03T22:26:25.006Z,6.50
2019-04-03T22:28:54.797Z,6.50
2019-04-03T22:31:24.492Z,6.50
2019-04-03T22:33:54.243Z,6.40
2019-04-03T22:36:23.962Z,6.40
2019-04-03T22:38:53.802Z,6.30
2019-04-03T22:41:23.618Z,6.40
2019-04-03T22:43:53.420Z,6.30
2019-04-03T22:46:23.218Z,6.30
2019-04-03T22:48:52.843Z,6.20
2019-04-03T22:51:22.457Z,6.20
2019-04-03T22:53:52.108Z,6.20
2019-04-03T22:56:21.738Z,6.20
2019-04-03T22:58:52.868Z,6.20
2019-04-03T23:01:23.309Z,6.20
2019-04-03T23:03:53.045Z,6.10
2019-04-03T23:06:22.824Z,6.10
2019-04-03T23:08:53.749Z,6.10
2019-04-03T23:11:23.901Z,6.10
2019-04-03T23:13:53.586Z,6.10
2019-04-03T23:16:23.298Z,6.10
2019-04-03T23:18:52.923Z,6.00
2019-04-03T23:21:23.885Z,6.00
2019-04-03T23:23:54.106Z,6.00
2019-04-03T23:26:23.894Z,6.00
2019-04-03T23:28:53.599Z,6.00
2019-04-03T23:31:23.322Z,6.00
2019-04-03T23:33:53.122Z,5.90
2019-04-03T23:36:23.496Z,5.90
2019-04-03T23:38:56.342Z,5.90
2019-04-03T23:41:24.808Z,5.90
2019-04-03T23:43:54.553Z,5.80
2019-04-03T23:46:25.719Z,5.80
2019-04-03T23:48:55.379Z,5.80
2019-04-03T23:51:27.353Z,5.70
2019-04-03T23:53:56.488Z,5.70
2019-04-03T23:56:27.699Z,5.70
2019-04-03T23:58:59.056Z,5.60
